Latest  Newer  Older  Last 2 hours animation  Current image  Latest image 
Rain/snow radar  Infrared sat images 
Real-time lightning map

All time is UTC (add 2 hours to UTC in wintertime, 3 hours to UTC in DST for Latvia local time)

2019/10/14 11:50 EVRA 141150Z 23010G20KT 210V270 9999 SCT035 17/10 Q1006 R18/190095 NOSIG
2019/10/14 11:50 EVLA 141150Z AUTO 24024KT 9999 BKN018/// BKN024/// 14/11 Q1008
2019/10/14 11:50 EVVA 141150Z AUTO 24018G29KT 9999 BKN017 BKN036 14/12 Q1005
2019/10/14 11:50 EYKA 141150Z 25014KT 210V290 9999 BKN030 20/14 Q1011
2019/10/14 11:50 EYPA 141150Z 25009G19KT 180V310 9999 BKN020 15/11 Q1011
2019/10/14 11:50 EYSA 141150Z 24022G32KT 9999 FEW032 17/10 Q1009 BLU NOSIG
2019/10/14 11:50 EYVI 141150Z 24013KT CAVOK 19/13 Q1012 NOSIG
2019/10/14 11:50 EEKA 141150Z 02012KT 9999 OVC006 08/08 Q1002
2019/10/14 11:50 EEKE 141150Z AUTO 25013KT 210V280 9999NDV FEW015 SCT029 14/12 Q1002
2019/10/14 11:50 EEPU 141150Z 23017KT 9999 OVC010 14/14 Q1001
2019/10/14 11:50 EETN 141150Z 05012G22KT 3200 -RA BR SCT004 BKN013 OVC020 07/07 Q1002 TEMPO 05015G25KT BKN005
2019/10/14 11:50 EETU 141150Z 22009KT 9999 SCT013 BKN030 14/13 Q1001
   RIGA AIRPORT     EVRA               56 55N  023 58E   10   X     T          6 LV
   LIEPAJA INTL     EVLA        26406  56 31N  021 06E    4   X                8 LV
   VENTPILS         EVVA               57 21N  021 33E    6   X                8 LV
   KAUNAS           EYKA               54 54N  023 55E   77   X     T          6 LT
   PALANGA INTL     EYPA               55 55N  021 03E   10   X                6 LT
   SIAULIAI INTL    EYSA               55 54N  023 24E  135   X     T          6 LT
   VILNIUS INTL     EYVI        26730  54 38N  025 17E  197   X     T          6 LT
   KARDLA           EEKA        26116  58 59N  022 50E    4   X                8 EE
   KURESSAARE       EEKE               58 14N  022 31E    4   X                8 EE
   PARNU            EEPU               58 25N  024 28E   14   X                8 EE
   TALLINN          EETN        26038  59 24N  024 49E   40   X     T          8 EE
   TARTU            EETU               58 19N  026 41E   67   X                8 EE

cloud coverage image from sat24.com and METAR data from weather.noaa.gov